createdAt,value
2022-11-21T00:00:39.972Z,0.30
2022-11-21T00:03:06.396Z,0.35
2022-11-21T00:05:33.768Z,0.88
2022-11-21T00:08:00.147Z,0.40
2022-11-21T00:10:26.688Z,0.70
2022-11-21T00:12:55.029Z,0.50
2022-11-21T00:15:21.948Z,0.40
2022-11-21T00:17:48.353Z,0.50
2022-11-21T00:20:14.988Z,0.80
2022-11-21T00:22:41.334Z,0.50
2022-11-21T00:25:08.334Z,0.55
2022-11-21T00:27:34.713Z,0.80
2022-11-21T00:30:01.096Z,1.20
2022-11-21T00:32:27.469Z,0.80
2022-11-21T00:34:53.875Z,0.80
2022-11-21T00:37:20.247Z,0.70
2022-11-21T00:39:46.583Z,1.25
2022-11-21T00:42:12.967Z,1.23
2022-11-21T00:44:39.306Z,0.90
2022-11-21T00:47:05.663Z,1.33
2022-11-21T00:49:32.044Z,0.90
2022-11-21T00:51:58.478Z,1.20
2022-11-21T00:54:25.211Z,1.20
2022-11-21T00:56:51.846Z,1.40
2022-11-21T00:59:18.318Z,1.52
2022-11-21T01:01:44.802Z,1.17
2022-11-21T01:04:11.262Z,1.10
2022-11-21T01:06:38.470Z,1.10
2022-11-21T01:09:05.074Z,1.20
2022-11-21T01:11:31.436Z,1.50
2022-11-21T01:13:57.934Z,1.27
2022-11-21T01:16:26.298Z,1.33
2022-11-21T01:18:52.780Z,1.70
2022-11-21T01:21:30.471Z,1.60
2022-11-21T01:23:59.399Z,1.20
2022-11-21T01:26:27.999Z,1.38
2022-11-21T01:28:54.958Z,1.17
2022-11-21T01:31:24.163Z,1.38
2022-11-21T01:33:50.732Z,1.73
2022-11-21T01:36:20.508Z,1.30
2022-11-21T01:38:49.150Z,2.03
2022-11-21T01:41:19.503Z,1.40
2022-11-21T01:43:47.764Z,1.38
2022-11-21T01:46:17.040Z,1.70
2022-11-21T01:48:46.218Z,1.60
2022-11-21T01:51:24.245Z,1.55
2022-11-21T01:53:57.443Z,2.10
2022-11-21T01:56:25.021Z,1.40
2022-11-21T01:58:54.983Z,1.53
2022-11-21T02:01:21.568Z,1.30
2022-11-21T02:03:48.369Z,1.52
2022-11-21T02:06:14.942Z,1.63
2022-11-21T02:08:44.919Z,1.77
2022-11-21T02:11:49.207Z,1.53
2022-11-21T02:14:15.743Z,1.80
2022-11-21T02:16:42.777Z,1.60
2022-11-21T02:19:15.762Z,1.60
2022-11-21T02:21:55.662Z,1.50
2022-11-21T02:24:35.731Z,1.73
2022-11-21T02:27:02.509Z,1.33
2022-11-21T02:29:28.888Z,1.33
2022-11-21T02:31:55.258Z,1.35
2022-11-21T02:34:21.594Z,1.80
2022-11-21T02:36:48.230Z,1.40
2022-11-21T02:39:21.412Z,2.20
2022-11-21T02:42:12.418Z,1.70
2022-11-21T02:44:46.954Z,1.60
2022-11-21T02:47:13.306Z,1.85
2022-11-21T02:49:47.476Z,2.00
2022-11-21T02:52:13.873Z,1.55
2022-11-21T02:54:40.271Z,2.10
2022-11-21T02:57:06.674Z,1.52
2022-11-21T02:59:33.027Z,1.95
2022-11-21T03:02:01.007Z,2.07
2022-11-21T03:04:27.611Z,1.60
2022-11-21T03:06:54.384Z,1.70
2022-11-21T03:09:20.760Z,1.65
2022-11-21T03:11:47.134Z,1.42
2022-11-21T03:14:13.498Z,1.60
2022-11-21T03:16:39.842Z,1.77
2022-11-21T03:19:06.205Z,1.80
2022-11-21T03:21:32.546Z,1.70
2022-11-21T03:23:58.938Z,1.60
2022-11-21T03:26:25.276Z,2.17
2022-11-21T03:28:51.639Z,1.50
2022-11-21T03:31:17.973Z,1.60
2022-11-21T03:33:44.331Z,1.60
2022-11-21T03:36:10.857Z,1.70
2022-11-21T03:38:37.208Z,1.40
2022-11-21T03:41:05.784Z,1.73
2022-11-21T03:43:32.198Z,1.73
2022-11-21T03:45:58.574Z,1.20
2022-11-21T03:48:24.918Z,1.40
2022-11-21T03:50:51.323Z,1.40
2022-11-21T03:53:17.674Z,1.50
2022-11-21T03:55:44.028Z,1.27
2022-11-21T03:58:10.363Z,1.35
2022-11-21T04:00:36.694Z,1.33
2022-11-21T04:03:03.249Z,1.30
2022-11-21T04:05:29.594Z,1.08
2022-11-21T04:07:55.949Z,1.30
2022-11-21T04:10:22.347Z,1.20
2022-11-21T04:12:48.731Z,1.02
2022-11-21T04:15:15.064Z,1.70
2022-11-21T04:17:41.520Z,1.38
2022-11-21T04:20:08.874Z,1.38
2022-11-21T04:22:35.227Z,1.50
2022-11-21T04:25:01.565Z,1.30
2022-11-21T04:27:27.917Z,1.30
2022-11-21T04:29:54.247Z,1.10
2022-11-21T04:32:20.584Z,1.10
2022-11-21T04:34:46.933Z,1.38
2022-11-21T04:37:13.325Z,1.15
2022-11-21T04:39:39.779Z,1.03
2022-11-21T04:42:06.135Z,1.30
2022-11-21T04:44:32.510Z,1.10
2022-11-21T04:47:05.064Z,1.08
2022-11-21T04:49:32.015Z,1.08
2022-11-21T04:51:58.392Z,1.03
2022-11-21T04:54:25.338Z,1.17
2022-11-21T04:56:51.940Z,1.08
2022-11-21T04:59:18.344Z,1.00
2022-11-21T05:01:44.738Z,1.23
2022-11-21T05:04:11.130Z,1.00
2022-11-21T05:06:37.513Z,1.20
2022-11-21T05:09:04.015Z,1.20
2022-11-21T05:11:48.677Z,0.90
2022-11-21T05:14:15.817Z,0.88
2022-11-21T05:16:42.827Z,0.73
2022-11-21T05:19:09.683Z,1.25
2022-11-21T05:21:36.053Z,0.90
2022-11-21T05:24:02.427Z,0.90
2022-11-21T05:26:28.769Z,1.33
2022-11-21T05:28:55.113Z,1.00
2022-11-21T05:31:21.450Z,0.95
2022-11-21T05:33:47.792Z,1.10
2022-11-21T05:36:14.176Z,0.90
2022-11-21T05:38:40.573Z,1.20
2022-11-21T05:41:06.910Z,1.10
2022-11-21T05:43:48.833Z,1.13
2022-11-21T05:46:17.936Z,1.23
2022-11-21T05:48:44.861Z,1.05
2022-11-21T05:51:11.332Z,1.00
2022-11-21T05:53:37.894Z,0.93
2022-11-21T05:56:12.419Z,1.17
2022-11-21T05:58:39.422Z,1.00
2022-11-21T06:01:07.043Z,0.90
2022-11-21T06:03:35.998Z,1.10
2022-11-21T06:06:10.886Z,0.80
2022-11-21T06:08:40.079Z,0.80
2022-11-21T06:11:08.176Z,0.82
2022-11-21T06:13:34.892Z,1.00
2022-11-21T06:16:04.202Z,0.80
2022-11-21T06:18:33.599Z,1.13
2022-11-21T06:21:04.707Z,1.17
2022-11-21T06:23:31.531Z,1.17
2022-11-21T06:25:59.680Z,1.15
2022-11-21T06:28:38.049Z,1.23
2022-11-21T06:31:15.493Z,0.90
2022-11-21T06:33:42.841Z,1.30
2022-11-21T06:36:15.227Z,1.20
2022-11-21T06:38:42.548Z,2.05
2022-11-21T06:41:13.703Z,1.70
2022-11-21T06:43:41.038Z,1.50
2022-11-21T06:46:08.037Z,1.50
2022-11-21T06:48:35.548Z,1.50
2022-11-21T06:51:12.680Z,1.55
2022-11-21T06:53:39.224Z,1.48
2022-11-21T06:56:05.722Z,1.73
2022-11-21T06:58:32.414Z,1.30
2022-11-21T07:00:58.908Z,1.30
2022-11-21T07:03:25.301Z,1.20
2022-11-21T07:05:52.571Z,1.35
2022-11-21T07:08:18.919Z,1.37
2022-11-21T07:11:10.061Z,1.45
2022-11-21T07:13:32.453Z,1.35
2022-11-21T07:16:10.104Z,1.50
2022-11-21T07:18:37.060Z,1.45
2022-11-21T07:21:06.158Z,1.50
2022-11-21T07:23:33.770Z,1.58
2022-11-21T07:26:10.381Z,1.75
2022-11-21T07:28:36.861Z,2.28
2022-11-21T07:31:07.015Z,1.90
2022-11-21T07:33:34.979Z,1.80
2022-11-21T07:36:01.342Z,1.67
2022-11-21T07:38:27.676Z,1.60
2022-11-21T07:40:56.276Z,1.63
2022-11-21T07:43:22.707Z,1.60
2022-11-21T07:45:49.070Z,1.33
2022-11-21T07:48:15.482Z,1.40
2022-11-21T07:50:41.851Z,1.75
2022-11-21T07:53:11.170Z,1.73
2022-11-21T07:55:40.763Z,2.05
2022-11-21T07:58:10.312Z,2.80
2022-11-21T08:00:39.002Z,1.70
2022-11-21T08:03:06.859Z,1.40
2022-11-21T08:05:40.995Z,1.90
2022-11-21T08:08:07.855Z,1.63
2022-11-21T08:10:38.223Z,1.40
2022-11-21T08:13:04.657Z,1.50
2022-11-21T08:15:31.056Z,1.70
2022-11-21T08:17:57.394Z,1.70
2022-11-21T08:20:23.782Z,1.40
2022-11-21T08:22:50.332Z,1.43
2022-11-21T08:25:16.710Z,1.42
2022-11-21T08:27:43.038Z,1.77
2022-11-21T08:30:11.139Z,1.80
2022-11-21T08:32:37.534Z,1.60
2022-11-21T08:35:04.598Z,1.57
2022-11-21T08:37:31.071Z,1.88
2022-11-21T08:40:00.857Z,1.60
2022-11-21T08:42:27.613Z,1.85
2022-11-21T08:44:54.068Z,1.65
2022-11-21T08:47:20.792Z,1.60
2022-11-21T08:49:48.060Z,1.50
2022-11-21T08:52:17.196Z,1.58
2022-11-21T08:54:44.519Z,1.35
2022-11-21T08:57:11.793Z,1.60
2022-11-21T08:59:38.123Z,1.50
2022-11-21T09:02:04.653Z,1.60
2022-11-21T09:04:31.217Z,1.75
2022-11-21T09:06:57.665Z,1.38
2022-11-21T09:09:25.701Z,1.33
2022-11-21T09:11:52.651Z,1.97
2022-11-21T09:14:37.546Z,1.35
2022-11-21T09:17:22.333Z,1.30
2022-11-21T09:19:48.964Z,1.60
2022-11-21T09:22:15.326Z,1.30
2022-11-21T09:24:41.681Z,1.33
2022-11-21T09:27:08.082Z,1.38
2022-11-21T09:29:34.412Z,1.25
2022-11-21T09:32:00.823Z,1.40
2022-11-21T09:34:27.594Z,1.20
2022-11-21T09:36:55.426Z,1.10
2022-11-21T09:39:21.808Z,1.50
2022-11-21T09:42:15.136Z,1.30
2022-11-21T09:44:58.162Z,1.50
2022-11-21T09:47:29.689Z,1.00
2022-11-21T09:50:04.071Z,1.10
2022-11-21T09:52:43.982Z,1.30
2022-11-21T09:55:34.886Z,0.90
2022-11-21T09:58:06.533Z,1.00
2022-11-21T10:00:33.871Z,1.02
2022-11-21T10:03:01.309Z,0.70
2022-11-21T10:05:40.575Z,1.00
2022-11-21T10:08:22.887Z,1.20
2022-11-21T10:11:05.684Z,0.73
2022-11-21T10:13:45.989Z,0.77
2022-11-21T10:16:23.224Z,0.80
2022-11-21T10:19:15.266Z,0.70
2022-11-21T10:21:56.769Z,0.60
2022-11-21T10:24:38.824Z,0.70
2022-11-21T10:27:19.054Z,0.73
2022-11-21T10:29:53.429Z,0.80
2022-11-21T10:32:26.226Z,0.70
2022-11-21T10:34:57.744Z,0.52
2022-11-21T10:37:36.787Z,0.60
2022-11-21T10:40:29.201Z,0.80
2022-11-21T10:42:58.047Z,0.70
2022-11-21T10:45:24.830Z,0.80
2022-11-21T10:47:52.722Z,1.10
2022-11-21T10:50:33.559Z,0.90
2022-11-21T10:53:32.389Z,0.50
2022-11-21T10:56:20.734Z,0.57
2022-11-21T10:58:53.030Z,0.50
2022-11-21T11:01:35.408Z,0.55
2022-11-21T11:04:27.161Z,0.60
2022-11-21T11:06:54.712Z,0.65
2022-11-21T11:09:33.400Z,0.50
2022-11-21T11:12:48.825Z,0.88
2022-11-21T11:15:25.069Z,0.65
2022-11-21T11:17:55.385Z,0.63
2022-11-21T11:20:38.237Z,1.10
2022-11-21T11:23:19.790Z,0.47
2022-11-21T11:25:48.179Z,0.50
2022-11-21T11:28:14.546Z,0.40
2022-11-21T11:30:41.591Z,0.30
2022-11-21T11:33:29.541Z,0.40
2022-11-21T11:36:05.934Z,0.50
2022-11-21T11:38:32.807Z,0.40
2022-11-21T11:41:05.679Z,0.32
2022-11-21T11:44:04.171Z,0.38
2022-11-21T11:47:27.001Z,0.60
2022-11-21T11:50:14.839Z,0.40
2022-11-21T11:52:52.196Z,0.50
2022-11-21T11:55:53.118Z,0.40
2022-11-21T11:58:28.526Z,0.60
2022-11-21T12:01:04.420Z,0.52
2022-11-21T12:03:41.083Z,0.40
2022-11-21T12:06:54.728Z,0.55
2022-11-21T12:09:28.401Z,0.40
2022-11-21T12:12:08.680Z,0.60
2022-11-21T12:15:08.560Z,0.60
2022-11-21T12:18:09.820Z,0.60
2022-11-21T12:20:57.181Z,0.50
2022-11-21T12:23:28.299Z,0.40
2022-11-21T12:25:54.586Z,0.40
2022-11-21T12:28:39.072Z,0.30
2022-11-21T12:31:22.310Z,0.60
2022-11-21T12:34:04.103Z,0.68
2022-11-21T12:36:46.998Z,0.70
2022-11-21T12:39:36.742Z,0.40
2022-11-21T12:42:35.706Z,0.35
2022-11-21T12:45:29.793Z,0.40
2022-11-21T12:48:39.747Z,0.40
2022-11-21T12:51:42.324Z,0.60
2022-11-21T12:54:33.760Z,0.40
2022-11-21T12:57:14.189Z,0.63
2022-11-21T13:00:18.154Z,0.43
2022-11-21T13:02:56.983Z,0.60
2022-11-21T13:05:30.086Z,0.50
2022-11-21T13:08:05.025Z,0.50
2022-11-21T13:10:32.459Z,0.52
2022-11-21T13:13:04.611Z,0.40
2022-11-21T13:15:41.046Z,0.50
2022-11-21T13:18:28.646Z,0.40
2022-11-21T13:20:55.035Z,0.50
2022-11-21T13:23:39.217Z,0.68
2022-11-21T13:26:30.047Z,0.60
2022-11-21T13:29:14.466Z,0.90
2022-11-21T13:31:41.639Z,0.90
2022-11-21T13:34:35.259Z,1.00
2022-11-21T13:37:01.856Z,0.80
2022-11-21T13:39:31.403Z,1.20
2022-11-21T13:42:20.237Z,0.93
2022-11-21T13:44:48.126Z,1.40
2022-11-21T13:47:26.280Z,1.20
2022-11-21T13:50:06.702Z,0.88
2022-11-21T13:52:54.844Z,1.07
2022-11-21T13:56:00.491Z,1.00
2022-11-21T13:58:32.414Z,0.90
2022-11-21T14:01:35.988Z,1.00
2022-11-21T14:04:29.596Z,1.13
2022-11-21T14:06:56.077Z,0.90
2022-11-21T14:09:28.347Z,0.75
2022-11-21T14:11:59.508Z,1.20
2022-11-21T14:14:34.571Z,0.88
2022-11-21T14:17:19.563Z,1.20
2022-11-21T14:19:46.768Z,1.17
2022-11-21T14:22:16.737Z,1.20
2022-11-21T14:24:43.622Z,1.30
2022-11-21T14:27:21.877Z,1.48
2022-11-21T14:29:48.324Z,1.08
2022-11-21T14:32:15.207Z,1.20
2022-11-21T14:34:41.619Z,1.30
2022-11-21T14:37:08.236Z,1.23
2022-11-21T14:39:44.113Z,1.30
2022-11-21T14:42:15.157Z,1.40
2022-11-21T14:44:42.139Z,1.30
2022-11-21T14:47:19.902Z,1.05
2022-11-21T14:49:52.223Z,1.30
2022-11-21T14:52:23.015Z,1.00
2022-11-21T14:55:28.656Z,1.10
2022-11-21T14:57:47.010Z,1.17
2022-11-21T15:00:51.318Z,1.40
2022-11-21T15:03:19.337Z,1.40
2022-11-21T15:06:05.325Z,1.52
2022-11-21T15:09:14.523Z,1.55
2022-11-21T15:11:23.312Z,1.47
2022-11-21T15:16:40.582Z,1.95
2022-11-21T15:19:10.938Z,1.98
2022-11-21T15:21:43.307Z,2.20
2022-11-21T15:24:42.298Z,2.10
2022-11-21T15:27:27.199Z,2.28
2022-11-21T15:30:12.329Z,2.00
2022-11-21T15:33:01.103Z,1.55
2022-11-21T15:35:38.004Z,1.63
2022-11-21T15:38:14.715Z,1.70
2022-11-21T15:40:45.650Z,2.40
2022-11-21T15:43:48.334Z,1.80
2022-11-21T15:46:14.602Z,3.03
2022-11-21T15:48:41.826Z,2.55
2022-11-21T15:51:11.085Z,2.77
2022-11-21T15:53:38.691Z,2.63
2022-11-21T15:56:05.502Z,2.53
2022-11-21T15:58:32.280Z,2.30
2022-11-21T16:01:00.167Z,2.97
2022-11-21T16:03:26.843Z,2.90
2022-11-21T16:05:53.181Z,2.47
2022-11-21T16:08:19.533Z,2.40
2022-11-21T16:10:45.913Z,3.60
2022-11-21T16:13:12.636Z,3.50
2022-11-21T16:15:39.883Z,4.60
2022-11-21T16:18:06.301Z,4.35
2022-11-21T16:20:32.652Z,3.60
2022-11-21T16:22:59.112Z,3.20
2022-11-21T16:25:25.495Z,3.13
2022-11-21T16:27:51.868Z,3.77
2022-11-21T16:30:18.969Z,3.33
2022-11-21T16:32:45.334Z,3.28
2022-11-21T16:35:11.729Z,2.08
2022-11-21T16:37:38.355Z,2.42
2022-11-21T16:40:05.395Z,2.97
2022-11-21T16:42:31.731Z,2.20
2022-11-21T16:44:58.083Z,2.40
2022-11-21T16:47:24.425Z,3.35
2022-11-21T16:49:50.820Z,2.65
2022-11-21T16:52:18.081Z,2.37
2022-11-21T16:54:44.560Z,2.20
2022-11-21T16:57:11.013Z,2.80
2022-11-21T16:59:37.412Z,2.53
2022-11-21T17:02:03.846Z,2.22
2022-11-21T17:04:30.770Z,2.73
2022-11-21T17:06:57.524Z,2.70
2022-11-21T17:09:23.929Z,2.63
2022-11-21T17:11:50.274Z,2.70
2022-11-21T17:14:16.619Z,2.80
2022-11-21T17:16:43.055Z,3.13
2022-11-21T17:19:11.816Z,3.20
2022-11-21T17:21:38.235Z,3.88
2022-11-21T17:24:04.760Z,3.10
2022-11-21T17:26:31.228Z,2.22
2022-11-21T17:29:00.202Z,2.60
2022-11-21T17:31:27.706Z,2.40
2022-11-21T17:33:57.041Z,2.75
2022-11-21T17:36:26.822Z,2.50
2022-11-21T17:38:54.415Z,2.25
2022-11-21T17:41:22.454Z,2.57
2022-11-21T17:43:48.972Z,2.50
2022-11-21T17:46:18.248Z,2.55
2022-11-21T17:48:51.256Z,2.22
2022-11-21T17:51:23.157Z,2.53
2022-11-21T17:53:51.082Z,2.47
2022-11-21T17:56:22.743Z,3.22
2022-11-21T17:58:50.066Z,2.42
2022-11-21T18:01:20.441Z,3.30
2022-11-21T18:04:17.310Z,5.57
2022-11-21T18:06:43.730Z,3.23
2022-11-21T18:09:11.208Z,2.85
2022-11-21T18:11:40.264Z,3.22
2022-11-21T18:14:08.109Z,3.03
2022-11-21T18:16:34.727Z,2.70
2022-11-21T18:19:01.432Z,2.23
2022-11-21T18:21:32.462Z,2.22
2022-11-21T18:24:01.959Z,2.80
2022-11-21T18:26:31.550Z,2.80
2022-11-21T18:29:34.512Z,2.67
2022-11-21T18:31:46.799Z,3.10
2022-11-21T18:34:13.235Z,3.17
2022-11-21T18:36:39.803Z,2.65
2022-11-21T18:39:14.192Z,3.28
2022-11-21T18:41:42.331Z,3.30
2022-11-21T18:44:09.766Z,3.07
2022-11-21T18:46:37.380Z,3.40
2022-11-21T18:49:06.797Z,3.22
2022-11-21T18:51:34.333Z,4.50
2022-11-21T18:54:10.891Z,3.60
2022-11-21T18:56:38.930Z,3.70
2022-11-21T18:59:06.347Z,3.28
2022-11-21T19:01:34.877Z,3.50
2022-11-21T19:04:01.354Z,3.78
2022-11-21T19:06:28.247Z,3.22
2022-11-21T19:08:56.272Z,3.43
2022-11-21T19:11:25.585Z,3.75
2022-11-21T19:13:53.320Z,3.50
2022-11-21T19:16:21.760Z,3.22
2022-11-21T19:19:05.361Z,3.67
2022-11-21T19:21:38.688Z,3.27
2022-11-21T19:24:09.279Z,3.50
2022-11-21T19:26:35.660Z,3.33
2022-11-21T19:29:02.006Z,3.20
2022-11-21T19:31:28.398Z,3.47
2022-11-21T19:33:54.761Z,3.63
2022-11-21T19:36:23.117Z,3.50
2022-11-21T19:38:51.288Z,2.88
2022-11-21T19:41:22.652Z,2.70
2022-11-21T19:43:50.177Z,2.75
2022-11-21T19:46:22.163Z,2.90
2022-11-21T19:48:50.031Z,3.03
2022-11-21T19:51:17.697Z,2.58
2022-11-21T19:53:45.067Z,2.65
2022-11-21T19:56:14.392Z,2.30
2022-11-21T19:58:42.122Z,2.63
2022-11-21T20:01:10.981Z,2.60
2022-11-21T20:03:39.091Z,2.33
2022-11-21T20:06:17.705Z,2.10
2022-11-21T20:08:48.114Z,2.72
2022-11-21T20:11:15.518Z,2.20
2022-11-21T20:13:44.539Z,2.42
2022-11-21T20:16:18.962Z,2.28
2022-11-21T20:18:46.031Z,2.50
2022-11-21T20:21:12.650Z,2.30
2022-11-21T20:23:39.067Z,2.17
2022-11-21T20:26:07.127Z,2.35
2022-11-21T20:28:35.099Z,2.33
2022-11-21T20:31:09.131Z,2.25
2022-11-21T20:33:47.160Z,2.30
2022-11-21T20:36:19.380Z,2.20
2022-11-21T20:38:53.734Z,2.40
2022-11-21T20:41:21.311Z,2.05
2022-11-21T20:44:53.137Z,2.35
2022-11-21T20:46:34.781Z,2.78
2022-11-21T20:49:02.112Z,2.50
2022-11-21T20:54:15.250Z,2.28
2022-11-21T20:56:44.380Z,2.50
2022-11-21T20:59:11.741Z,2.42
2022-11-21T21:01:38.205Z,2.87
2022-11-21T21:04:04.674Z,2.53
2022-11-21T21:06:31.337Z,3.13
2022-11-21T21:08:57.690Z,3.15
2022-11-21T21:11:50.250Z,3.35
2022-11-21T21:14:11.225Z,2.80
2022-11-21T21:16:37.603Z,3.83
2022-11-21T21:19:04.071Z,3.58
2022-11-21T21:21:30.804Z,3.58
2022-11-21T21:24:01.147Z,3.58
2022-11-21T21:26:42.677Z,3.93
2022-11-21T21:29:15.056Z,3.90
2022-11-21T21:31:45.483Z,3.92
2022-11-21T21:34:16.190Z,3.95
2022-11-21T21:36:42.551Z,3.90
2022-11-21T21:39:08.895Z,3.93
2022-11-21T21:41:35.743Z,4.47
2022-11-21T21:44:02.083Z,4.88
2022-11-21T21:46:28.536Z,4.50
2022-11-21T21:48:56.949Z,4.80
2022-11-21T21:51:28.349Z,4.63
2022-11-21T21:53:56.707Z,5.32
2022-11-21T21:56:24.700Z,5.43
2022-11-21T21:58:51.401Z,5.38
2022-11-21T22:01:20.259Z,5.30
2022-11-21T22:03:47.350Z,4.90
2022-11-21T22:06:16.419Z,4.60
2022-11-21T22:08:44.259Z,4.07
2022-11-21T22:11:11.680Z,4.90
2022-11-21T22:13:39.814Z,4.85
2022-11-21T22:16:07.625Z,4.10
2022-11-21T22:18:34.115Z,4.50
2022-11-21T22:21:01.507Z,4.95
2022-11-21T22:23:28.020Z,4.30
2022-11-21T22:25:56.141Z,4.60
2022-11-21T22:28:22.792Z,4.87
2022-11-21T22:30:56.387Z,5.20
2022-11-21T22:33:23.348Z,5.10
2022-11-21T22:35:49.950Z,5.05
2022-11-21T22:38:16.702Z,5.35
2022-11-21T22:40:43.860Z,6.00
2022-11-21T22:43:10.421Z,5.90
2022-11-21T22:45:36.811Z,6.10
2022-11-21T22:48:03.950Z,6.03
2022-11-21T22:50:30.319Z,6.20
2022-11-21T22:52:56.677Z,6.80
2022-11-21T22:55:23.166Z,6.13
2022-11-21T22:57:49.584Z,5.72
2022-11-21T23:00:17.006Z,6.50
2022-11-21T23:02:44.641Z,5.68
2022-11-21T23:05:11.058Z,5.50
2022-11-21T23:07:37.478Z,5.43
2022-11-21T23:10:04.123Z,5.57
2022-11-21T23:12:30.585Z,5.68
2022-11-21T23:14:56.924Z,6.07
2022-11-21T23:17:23.888Z,5.23
2022-11-21T23:19:50.249Z,5.78
2022-11-21T23:22:16.574Z,6.30
2022-11-21T23:24:42.931Z,5.68
2022-11-21T23:27:09.324Z,6.20
2022-11-21T23:29:35.681Z,5.80
2022-11-21T23:32:02.033Z,5.03
2022-11-21T23:34:28.474Z,5.43
2022-11-21T23:36:54.837Z,5.28
2022-11-21T23:39:21.242Z,5.03
2022-11-21T23:41:47.592Z,3.90
2022-11-21T23:44:13.951Z,4.43
2022-11-21T23:46:40.325Z,4.32
2022-11-21T23:49:06.712Z,4.00
2022-11-21T23:51:33.153Z,3.60
2022-11-21T23:53:59.561Z,3.33
2022-11-21T23:56:25.918Z,2.83
2022-11-21T23:58:52.355Z,3.42
